Time;durP1;ratioP1;P1;durP2;ratioP2;P2;SDS_P1;SDS_P2;PMS_P1;PMS_P2;Temp;Humidity;BMP_temperature;BMP_pressure;BME280_temperature;BME280_humidity;BME280_pressure;Samples;Min_cycle;Max_cycle;Signal;HPM_P1;HPM_P2
2022/08/11 00:00:42;;;;;;;3.95;2.20;;;;;;;;;;6268423;22;20154;-75
2022/08/11 00:03:08;;;;;;;2.78;2.05;;;;;;;;;;6267716;22;20147;-75
2022/08/11 00:05:42;;;;;;;4.57;2.10;;;;;;;;;;6268711;22;20168;-74
2022/08/11 00:08:08;;;;;;;8.15;2.38;;;;;;;;;;6268801;22;20140;-74
2022/08/11 00:10:33;;;;;;;5.43;2.03;;;;;;;;;;6271063;22;20483;-75
2022/08/11 00:13:01;;;;;;;2.65;2.33;;;;;;;;;;6267203;22;20159;-75
2022/08/11 00:15:27;;;;;;;3.28;2.13;;;;;;;;;;6270617;22;20491;-74
2022/08/11 00:17:56;;;;;;;2.83;2.30;;;;;;;;;;6267913;22;20644;-74
2022/08/11 00:20:22;;;;;;;3.58;2.33;;;;;;;;;;6269094;22;20145;-75
2022/08/11 00:22:48;;;;;;;3.83;2.05;;;;;;;;;;6270110;22;20254;-75
2022/08/11 00:25:17;;;;;;;3.72;2.38;;;;;;;;;;6269036;22;20170;-74
2022/08/11 00:27:43;;;;;;;3.97;1.90;;;;;;;;;;6271196;22;20176;-74
2022/08/11 00:30:09;;;;;;;5.95;2.22;;;;;;;;;;6268051;22;20159;-74
2022/08/11 00:32:36;;;;;;;2.85;1.90;;;;;;;;;;6274130;22;20197;-74
2022/08/11 00:35:02;;;;;;;3.53;1.92;;;;;;;;;;6275763;22;20627;-74
2022/08/11 00:37:28;;;;;;;4.60;1.90;;;;;;;;;;6276206;22;20163;-74
2022/08/11 00:39:54;;;;;;;7.72;2.20;;;;;;;;;;6274937;22;20167;-74
2022/08/11 00:42:38;;;;;;;4.82;2.13;;;;;;;;;;6276993;22;20254;-74
2022/08/11 00:45:09;;;;;;;4.90;2.28;;;;;;;;;;6276023;22;20168;-75
2022/08/11 00:47:45;;;;;;;2.50;2.03;;;;;;;;;;6273622;22;20508;-74
2022/08/11 00:50:16;;;;;;;3.70;2.22;;;;;;;;;;6276701;22;20359;-75
2022/08/11 00:52:59;;;;;;;2.50;2.30;;;;;;;;;;6275507;22;20194;-75
2022/08/11 00:55:43;;;;;;;4.55;2.28;;;;;;;;;;6275893;22;20203;-75
2022/08/11 00:58:34;;;;;;;4.53;2.22;;;;;;;;;;6275463;22;20186;-75
2022/08/11 01:01:15;;;;;;;2.58;2.05;;;;;;;;;;6269171;22;20160;-74
2022/08/11 01:04:11;;;;;;;3.67;2.10;;;;;;;;;;6275779;22;20194;-74
2022/08/11 01:06:56;;;;;;;3.97;2.05;;;;;;;;;;6274641;22;20218;-75
2022/08/11 01:09:24;;;;;;;4.45;2.40;;;;;;;;;;6211593;22;20158;-74
2022/08/11 01:11:49;;;;;;;2.40;2.13;;;;;;;;;;6274806;22;20549;-74
2022/08/11 01:14:33;;;;;;;3.70;1.85;;;;;;;;;;6275045;22;20228;-75
2022/08/11 01:17:17;;;;;;;3.25;2.58;;;;;;;;;;6276844;22;20454;-74
2022/08/11 01:20:01;;;;;;;2.38;1.80;;;;;;;;;;6275014;22;20141;-75
2022/08/11 01:22:44;;;;;;;3.78;2.55;;;;;;;;;;6298936;22;20666;-73
2022/08/11 01:25:28;;;;;;;3.90;2.40;;;;;;;;;;6276402;22;20227;-73
2022/08/11 01:28:08;;;;;;;3.95;2.13;;;;;;;;;;6274759;22;20148;-75
2022/08/11 01:30:33;;;;;;;3.53;2.13;;;;;;;;;;6276519;22;20149;-74
2022/08/11 01:33:08;;;;;;;11.03;2.50;;;;;;;;;;6276027;22;20179;-75
2022/08/11 01:35:33;;;;;;;3.70;2.15;;;;;;;;;;6274982;22;20389;-74
2022/08/11 01:38:17;;;;;;;2.55;2.33;;;;;;;;;;6272194;22;20168;-75
2022/08/11 01:40:54;;;;;;;2.55;1.88;;;;;;;;;;6274985;22;20580;-75
2022/08/11 01:46:25;;;;;;;5.13;3.10;;;;;;;;;;6274007;22;20198;-75
2022/08/11 01:49:05;;;;;;;5.88;2.25;;;;;;;;;;6275002;22;20149;-74
2022/08/11 01:51:43;;;;;;;6.05;2.17;;;;;;;;;;6274089;22;20144;-75
2022/08/11 01:54:17;;;;;;;2.83;2.50;;;;;;;;;;6273796;22;20128;-74
2022/08/11 01:56:42;;;;;;;3.80;2.38;;;;;;;;;;6271899;22;20573;-73
2022/08/11 01:59:26;;;;;;;8.10;2.63;;;;;;;;;;6272082;22;20140;-74
2022/08/11 02:01:51;;;;;;;2.97;2.42;;;;;;;;;;6271893;22;20603;-73
2022/08/11 02:04:16;;;;;;;6.53;2.60;;;;;;;;;;6271628;22;20145;-74
2022/08/11 02:06:53;;;;;;;4.37;2.20;;;;;;;;;;6270776;22;20394;-74
2022/08/11 02:09:27;;;;;;;3.38;2.45;;;;;;;;;;6271107;22;20921;-73
2022/08/11 02:11:57;;;;;;;3.30;2.72;;;;;;;;;;6272036;22;20735;-74
2022/08/11 02:14:22;;;;;;;3.20;2.95;;;;;;;;;;6272101;22;20158;-73
2022/08/11 02:17:06;;;;;;;4.65;2.60;;;;;;;;;;6272588;22;20196;-73
2022/08/11 02:25:10;;;;;;;4.72;2.78;;;;;;;;;;6272575;22;20180;-73
2022/08/11 02:27:44;;;;;;;3.40;1.90;;;;;;;;;;6272675;22;20596;-73
2022/08/11 02:30:12;;;;;;;2.67;2.22;;;;;;;;;;6272679;22;20614;-73
2022/08/11 02:35:46;;;;;;;3.13;2.60;;;;;;;;;;6270168;22;20190;-74
2022/08/11 02:38:23;;;;;;;5.35;2.28;;;;;;;;;;6271695;22;20150;-74
2022/08/11 02:42:21;;;;;;;3.10;2.80;;;;;;;;;;6295703;22;20146;-74
2022/08/11 02:44:01;;;;;;;9.70;3.28;;;;;;;;;;6272242;22;20596;-74
2022/08/11 02:46:31;;;;;;;2.53;2.17;;;;;;;;;;6271679;22;20222;-74
2022/08/11 02:51:55;;;;;;;4.35;2.50;;;;;;;;;;6272056;22;20182;-74
2022/08/11 02:54:31;;;;;;;3.22;2.60;;;;;;;;;;6271957;22;20139;-74
2022/08/11 02:57:00;;;;;;;2.47;2.03;;;;;;;;;;6227316;22;1062837;-74
2022/08/11 02:59:51;;;;;;;6.32;2.60;;;;;;;;;;6272687;22;20200;-74
2022/08/11 03:02:22;;;;;;;5.45;2.38;;;;;;;;;;6273672;22;20160;-74
2022/08/11 03:04:56;;;;;;;3.13;2.60;;;;;;;;;;6274238;22;20160;-74
2022/08/11 03:07:39;;;;;;;5.03;2.97;;;;;;;;;;6273406;22;20218;-75
2022/08/11 03:10:25;;;;;;;5.05;3.13;;;;;;;;;;6273885;22;20149;-73
2022/08/11 03:19:03;;;;;;;3.33;3.00;;;;;;;;;;6273122;22;20659;-74
2022/08/11 03:21:33;;;;;;;3.10;2.80;;;;;;;;;;6273043;22;20144;-74
2022/08/11 03:24:07;;;;;;;4.10;3.50;;;;;;;;;;6274354;22;20141;-73
2022/08/11 03:26:58;;;;;;;5.25;3.08;;;;;;;;;;6273365;22;20571;-74
2022/08/11 03:29:30;;;;;;;6.40;2.85;;;;;;;;;;6274820;22;20220;-73
2022/08/11 03:32:00;;;;;;;4.68;2.92;;;;;;;;;;6272699;22;20488;-74
2022/08/11 03:34:26;;;;;;;4.68;2.88;;;;;;;;;;6274126;22;20190;-74
2022/08/11 03:37:11;;;;;;;4.35;2.78;;;;;;;;;;6273164;22;20245;-74
2022/08/11 03:39:39;;;;;;;3.22;2.97;;;;;;;;;;6272289;22;20148;-74
2022/08/11 03:42:15;;;;;;;5.57;3.22;;;;;;;;;;6271778;22;20247;-74
2022/08/11 03:44:43;;;;;;;5.95;3.65;;;;;;;;;;6272322;22;20573;-74
2022/08/11 03:47:17;;;;;;;4.78;3.00;;;;;;;;;;6272814;22;20144;-75
2022/08/11 03:49:51;;;;;;;5.50;3.10;;;;;;;;;;6274000;22;20647;-77
2022/08/11 03:52:26;;;;;;;5.10;3.03;;;;;;;;;;6270616;22;20163;-75
2022/08/11 03:55:09;;;;;;;5.18;3.50;;;;;;;;;;6273442;22;20250;-75
2022/08/11 03:57:56;;;;;;;4.25;3.20;;;;;;;;;;6273105;22;20157;-75
2022/08/11 04:00:22;;;;;;;5.00;3.35;;;;;;;;;;6296102;22;20155;-75
2022/08/11 04:03:17;;;;;;;6.55;3.28;;;;;;;;;;6272196;22;20145;-75
2022/08/11 04:06:08;;;;;;;4.00;3.60;;;;;;;;;;6274086;22;20164;-75
2022/08/11 04:08:33;;;;;;;5.35;3.50;;;;;;;;;;6273597;22;20236;-73
2022/08/11 04:10:58;;;;;;;5.20;3.95;;;;;;;;;;6272442;22;20172;-74
2022/08/11 04:13:23;;;;;;;4.90;3.30;;;;;;;;;;6270731;22;20235;-74
2022/08/11 04:16:01;;;;;;;4.50;3.43;;;;;;;;;;6272873;22;20217;-73
2022/08/11 04:18:26;;;;;;;5.60;3.30;;;;;;;;;;6271502;22;20683;-76
2022/08/11 04:21:07;;;;;;;7.70;4.47;;;;;;;;;;6272512;22;20145;-73
2022/08/11 04:23:38;;;;;;;5.68;3.90;;;;;;;;;;6272427;22;20813;-73
2022/08/11 04:26:15;;;;;;;5.03;3.70;;;;;;;;;;6271069;22;20168;-73
2022/08/11 04:28:53;;;;;;;5.07;3.38;;;;;;;;;;6270340;22;20152;-73
2022/08/11 04:31:24;;;;;;;4.53;3.40;;;;;;;;;;6272349;22;20151;-76
2022/08/11 04:33:52;;;;;;;5.68;4.13;;;;;;;;;;6272918;22;20148;-74
2022/08/11 04:37:31;;;;;;;25.27;6.15;;;;;;;;;;6271808;22;20171;-75
2022/08/11 04:39:37;;;;;;;5.10;3.22;;;;;;;;;;6272653;22;20153;-75
2022/08/11 04:45:15;;;;;;;6.78;3.55;;;;;;;;;;6272918;22;20519;-76
2022/08/11 05:02:30;;;;;;;4.20;3.80;;;;;;;;;;6270323;22;20140;-74
2022/08/11 05:07:54;;;;;;;4.82;3.88;;;;;;;;;;6272349;22;20175;-74
2022/08/11 05:10:38;;;;;;;4.80;4.03;;;;;;;;;;6272504;22;20148;-74
2022/08/11 05:35:36;;;;;;;4.65;3.70;;;;;;;;;;6274556;22;20303;-74
2022/08/11 05:57:21;;;;;;;8.13;4.03;;;;;;;;;;6274687;22;20190;-74
2022/08/11 05:59:46;;;;;;;4.82;4.05;;;;;;;;;;6299507;22;20183;-75
2022/08/11 06:02:12;;;;;;;6.63;4.88;;;;;;;;;;6272967;22;20144;-75
2022/08/11 06:04:38;;;;;;;6.78;4.35;;;;;;;;;;6275021;22;20144;-75
2022/08/11 06:07:08;;;;;;;5.53;4.05;;;;;;;;;;6274026;22;20149;-75
2022/08/11 06:09:37;;;;;;;5.43;3.90;;;;;;;;;;6272352;22;20239;-75
2022/08/11 06:12:07;;;;;;;5.03;4.22;;;;;;;;;;6273422;22;20487;-75
2022/08/11 06:14:33;;;;;;;6.70;4.07;;;;;;;;;;6298124;22;20157;-75
2022/08/11 06:16:59;;;;;;;4.63;4.13;;;;;;;;;;6272683;22;20586;-75
2022/08/11 06:19:30;;;;;;;5.97;3.88;;;;;;;;;;6273777;22;20153;-75
2022/08/11 06:21:56;;;;;;;4.35;3.85;;;;;;;;;;6271936;22;20572;-74
2022/08/11 06:24:21;;;;;;;6.75;4.00;;;;;;;;;;6274353;22;20220;-75
2022/08/11 06:26:49;;;;;;;5.45;3.90;;;;;;;;;;6272846;22;20148;-74
2022/08/11 06:29:17;;;;;;;5.35;3.30;;;;;;;;;;6273822;22;20199;-75
2022/08/11 06:31:50;;;;;;;4.18;3.50;;;;;;;;;;6272476;22;20580;-72
2022/08/11 06:34:27;;;;;;;5.50;3.50;;;;;;;;;;6274236;22;20143;-72
2022/08/11 06:37:07;;;;;;;4.60;3.65;;;;;;;;;;6274594;22;20168;-73
2022/08/11 06:39:43;;;;;;;5.47;3.58;;;;;;;;;;6272727;22;20144;-73
2022/08/11 06:42:13;;;;;;;3.80;3.45;;;;;;;;;;6272489;22;20564;-73
2022/08/11 06:45:07;;;;;;;5.47;3.35;;;;;;;;;;6273708;22;20144;-75
2022/08/11 06:47:33;;;;;;;5.68;3.15;;;;;;;;;;6246884;22;20152;-72
2022/08/11 06:52:45;;;;;;;4.95;2.63;;;;;;;;;;6273431;22;20154;-74
2022/08/11 06:55:11;;;;;;;6.88;3.22;;;;;;;;;;6272790;22;20358;-73
2022/08/11 07:00:28;;;;;;;4.80;3.28;;;;;;;;;;6273445;22;20175;-74
2022/08/11 07:02:54;;;;;;;6.80;3.08;;;;;;;;;;6271268;22;20128;-74
2022/08/11 07:05:22;;;;;;;3.90;2.80;;;;;;;;;;6271727;22;20173;-74
2022/08/11 07:16:55;;;;;;;6.10;2.75;;;;;;;;;;6271903;22;20171;-74
2022/08/11 07:30:27;;;;;;;6.18;2.33;;;;;;;;;;6272965;22;20142;-73
2022/08/11 07:32:54;;;;;;;5.70;2.38;;;;;;;;;;6273597;22;20179;-73
2022/08/11 07:35:23;;;;;;;5.22;2.30;;;;;;;;;;6273283;22;20164;-74
2022/08/11 07:37:55;;;;;;;3.10;2.50;;;;;;;;;;6270330;22;20176;-74
2022/08/11 07:40:21;;;;;;;7.63;2.50;;;;;;;;;;6273299;22;20215;-74
2022/08/11 07:42:47;;;;;;;4.97;2.67;;;;;;;;;;6272512;22;20172;-73
2022/08/11 07:53:26;;;;;;;7.00;3.30;;;;;;;;;;6272460;22;20503;-74
2022/08/11 07:55:52;;;;;;;4.25;2.08;;;;;;;;;;6273682;22;20245;-73
2022/08/11 08:20:15;;;;;;;6.20;2.05;;;;;;;;;;6272707;22;20470;-73
2022/08/11 08:22:41;;;;;;;5.50;2.28;;;;;;;;;;6267610;22;20205;-73
2022/08/11 08:25:07;;;;;;;4.03;2.17;;;;;;;;;;6297178;22;20251;-73
2022/08/11 08:27:34;;;;;;;2.80;2.03;;;;;;;;;;6271996;22;20235;-73
2022/08/11 08:32:43;;;;;;;7.30;2.63;;;;;;;;;;6271677;22;20143;-74
2022/08/11 08:35:09;;;;;;;4.20;2.20;;;;;;;;;;6270729;22;20172;-73
2022/08/11 08:37:35;;;;;;;2.80;2.38;;;;;;;;;;6273184;22;20175;-74
2022/08/11 08:40:00;;;;;;;4.33;1.83;;;;;;;;;;6273137;22;20141;-74
2022/08/11 08:42:27;;;;;;;9.30;2.45;;;;;;;;;;6273392;22;20350;-74
2022/08/11 08:45:11;;;;;;;4.30;2.13;;;;;;;;;;6271836;22;20514;-73
2022/08/11 08:47:40;;;;;;;3.33;1.83;;;;;;;;;;6271278;22;20148;-74
2022/08/11 08:50:12;;;;;;;3.25;2.10;;;;;;;;;;6272041;22;20148;-74
2022/08/11 08:52:41;;;;;;;4.32;2.25;;;;;;;;;;6270981;22;20155;-72
2022/08/11 08:55:08;;;;;;;3.67;2.15;;;;;;;;;;6273892;22;20168;-72
2022/08/11 08:57:34;;;;;;;3.17;1.92;;;;;;;;;;6272630;22;20160;-73
2022/08/11 09:00:00;;;;;;;5.68;2.03;;;;;;;;;;6273494;22;20152;-73
2022/08/11 09:02:26;;;;;;;3.28;2.20;;;;;;;;;;6273667;22;20171;-73
2022/08/11 09:04:52;;;;;;;4.32;2.22;;;;;;;;;;6274714;22;20175;-73
2022/08/11 09:07:19;;;;;;;4.38;2.35;;;;;;;;;;6269824;22;20148;-73
2022/08/11 09:09:48;;;;;;;3.30;2.15;;;;;;;;;;6275511;22;20709;-73
2022/08/11 09:12:14;;;;;;;2.53;2.15;;;;;;;;;;6274015;22;20154;-73
2022/08/11 09:17:26;;;;;;;5.65;2.30;;;;;;;;;;6274281;22;20174;-73
2022/08/11 09:19:57;;;;;;;4.68;2.20;;;;;;;;;;6273803;22;20238;-73
2022/08/11 09:28:03;;;;;;;3.78;2.33;;;;;;;;;;6166556;22;20159;-73
2022/08/11 09:30:29;;;;;;;8.93;2.25;;;;;;;;;;6274200;22;20143;-73
2022/08/11 09:32:56;;;;;;;4.82;2.08;;;;;;;;;;6274245;22;20205;-74
2022/08/11 09:35:22;;;;;;;2.63;1.95;;;;;;;;;;6274150;22;20167;-72
2022/08/11 09:40:32;;;;;;;4.30;1.90;;;;;;;;;;6272781;22;20261;-74
2022/08/11 09:45:50;;;;;;;3.67;2.15;;;;;;;;;;6274395;22;20558;-74
2022/08/11 09:48:16;;;;;;;4.45;2.17;;;;;;;;;;6274298;22;20598;-74
2022/08/11 09:50:43;;;;;;;3.60;2.30;;;;;;;;;;6273833;22;20221;-74
2022/08/11 09:53:09;;;;;;;6.75;2.22;;;;;;;;;;6272133;22;20182;-74
2022/08/11 09:55:34;;;;;;;5.70;2.25;;;;;;;;;;6270397;22;20881;-74
2022/08/11 09:58:17;;;;;;;6.95;2.20;;;;;;;;;;6273891;22;20623;-74
2022/08/11 10:00:43;;;;;;;4.03;1.90;;;;;;;;;;6272122;22;20618;-73
2022/08/11 10:03:16;;;;;;;6.03;2.10;;;;;;;;;;6274724;22;20144;-74
2022/08/11 10:08:36;;;;;;;5.78;1.85;;;;;;;;;;6272963;22;20155;-73
2022/08/11 10:11:01;;;;;;;2.47;1.63;;;;;;;;;;6273292;22;20226;-74
2022/08/11 10:13:33;;;;;;;5.07;1.63;;;;;;;;;;6273791;22;20583;-73
2022/08/11 10:16:01;;;;;;;3.10;2.50;;;;;;;;;;6296406;22;20221;-73
2022/08/11 10:18:41;;;;;;;2.90;1.75;;;;;;;;;;6274481;22;20551;-73
2022/08/11 10:21:12;;;;;;;3.58;1.60;;;;;;;;;;6274272;22;20128;-74
2022/08/11 10:34:39;;;;;;;2.55;1.73;;;;;;;;;;6274630;22;20143;-74
2022/08/11 10:37:05;;;;;;;8.93;2.13;;;;;;;;;;6273830;22;20254;-74
2022/08/11 10:39:30;;;;;;;2.75;1.77;;;;;;;;;;6273135;22;20179;-73
2022/08/11 10:44:42;;;;;;;1.80;1.63;;;;;;;;;;6274342;22;20151;-74
2022/08/11 11:00:55;;;;;;;5.28;1.90;;;;;;;;;;6273169;22;20190;-71
2022/08/11 11:03:20;;;;;;;3.67;1.60;;;;;;;;;;6270737;22;20140;-71
2022/08/11 11:05:46;;;;;;;4.35;1.73;;;;;;;;;;6274499;22;20183;-71
2022/08/11 11:10:58;;;;;;;2.35;1.70;;;;;;;;;;6272583;22;20139;-71
2022/08/11 11:17:54;;;;;;;3.08;1.92;;;;;;;;;;6274344;22;20232;-71
2022/08/11 11:19:09;;;;;;;3.45;1.58;;;;;;;;;;6272415;22;20613;-71
2022/08/11 11:21:35;;;;;;;4.50;1.77;;;;;;;;;;6274404;22;20140;-71
2022/08/11 11:24:19;;;;;;;2.00;1.40;;;;;;;;;;6272955;22;20152;-71
2022/08/11 11:26:59;;;;;;;1.83;1.42;;;;;;;;;;6273282;22;20254;-71
2022/08/11 11:29:30;;;;;;;5.32;1.60;;;;;;;;;;6272804;22;20143;-71
2022/08/11 11:31:55;;;;;;;1.80;1.27;;;;;;;;;;6269965;22;20228;-71
2022/08/11 11:34:39;;;;;;;3.53;1.30;;;;;;;;;;6273335;22;20583;-71
2022/08/11 11:37:05;;;;;;;3.60;1.33;;;;;;;;;;6273927;22;20199;-71
2022/08/11 11:39:31;;;;;;;2.42;1.30;;;;;;;;;;6271698;22;20489;-71
2022/08/11 11:42:04;;;;;;;2.38;1.60;;;;;;;;;;6271889;22;20147;-71
2022/08/11 11:44:30;;;;;;;6.40;1.70;;;;;;;;;;6272138;22;20167;-71
2022/08/11 11:46:55;;;;;;;2.95;1.60;;;;;;;;;;6273641;22;20143;-71
2022/08/11 11:49:25;;;;;;;2.70;1.50;;;;;;;;;;6273805;22;20159;-70
2022/08/11 11:51:51;;;;;;;4.82;1.20;;;;;;;;;;6271871;22;20179;-71
2022/08/11 11:54:20;;;;;;;5.07;1.50;;;;;;;;;;6271441;22;20152;-71
2022/08/11 11:56:45;;;;;;;2.42;1.10;;;;;;;;;;6273499;22;20179;-71
2022/08/11 12:01:55;;;;;;;4.25;1.33;;;;;;;;;;6273447;22;20139;-71
2022/08/11 12:04:21;;;;;;;2.03;1.45;;;;;;;;;;6269821;22;20152;-71
2022/08/11 12:06:47;;;;;;;3.92;1.42;;;;;;;;;;6272599;22;20641;-71
2022/08/11 12:09:17;;;;;;;3.63;1.42;;;;;;;;;;6272459;22;20227;-71
2022/08/11 12:14:27;;;;;;;2.05;1.20;;;;;;;;;;6272927;22;20143;-72
2022/08/11 12:16:54;;;;;;;3.47;1.77;;;;;;;;;;6272477;22;20175;-71
2022/08/11 12:19:22;;;;;;;2.00;1.48;;;;;;;;;;6271534;22;20155;-72
2022/08/11 12:27:19;;;;;;;3.13;1.67;;;;;;;;;;6272225;22;20493;-72
2022/08/11 12:29:46;;;;;;;4.80;1.48;;;;;;;;;;6273055;22;20210;-71
2022/08/11 12:32:11;;;;;;;1.83;1.40;;;;;;;;;;6273449;22;20151;-72
2022/08/11 12:34:37;;;;;;;2.47;1.58;;;;;;;;;;6273410;22;20152;-72
2022/08/11 12:37:04;;;;;;;4.93;1.47;;;;;;;;;;6270980;22;20236;-72
2022/08/11 12:53:21;;;;;;;3.33;1.40;;;;;;;;;;6274402;22;20143;-72
2022/08/11 12:58:31;;;;;;;3.60;1.65;;;;;;;;;;6272645;22;20302;-72
2022/08/11 13:06:24;;;;;;;4.57;1.67;;;;;;;;;;6272879;22;20629;-71
2022/08/11 13:08:50;;;;;;;4.32;1.60;;;;;;;;;;6273724;22;20144;-72
2022/08/11 13:14:00;;;;;;;2.83;1.50;;;;;;;;;;6272055;22;20143;-72
2022/08/11 13:16:27;;;;;;;2.15;1.63;;;;;;;;;;6271506;22;20167;-73
2022/08/11 13:18:53;;;;;;;3.00;1.48;;;;;;;;;;6271326;22;20143;-72
2022/08/11 13:21:18;;;;;;;4.15;1.60;;;;;;;;;;6271486;22;20175;-72
2022/08/11 13:23:44;;;;;;;4.68;1.38;;;;;;;;;;6271708;22;20231;-74
2022/08/11 13:26:09;;;;;;;2.85;1.65;;;;;;;;;;6273753;22;20206;-72
2022/08/11 13:28:35;;;;;;;4.25;1.30;;;;;;;;;;6296329;22;20635;-72
2022/08/11 13:31:10;;;;;;;3.80;1.58;;;;;;;;;;6273081;22;20178;-71
2022/08/11 13:33:39;;;;;;;2.55;1.70;;;;;;;;;;6273175;22;20223;-72
2022/08/11 13:36:05;;;;;;;3.35;1.48;;;;;;;;;;6272818;22;20607;-72
2022/08/11 13:38:31;;;;;;;2.97;1.70;;;;;;;;;;6272437;22;20176;-72
2022/08/11 13:40:56;;;;;;;1.63;1.50;;;;;;;;;;6272000;22;20624;-72
2022/08/11 13:43:22;;;;;;;3.88;1.45;;;;;;;;;;6274102;22;20466;-71
2022/08/11 13:45:48;;;;;;;2.88;1.80;;;;;;;;;;6274365;22;20170;-72
2022/08/11 13:48:14;;;;;;;7.43;1.77;;;;;;;;;;6272348;22;20152;-71
2022/08/11 13:53:25;;;;;;;4.05;1.83;;;;;;;;;;6272661;22;20672;-71
2022/08/11 13:55:50;;;;;;;3.58;1.60;;;;;;;;;;6271154;22;20183;-72
2022/08/11 13:58:16;;;;;;;3.58;1.80;;;;;;;;;;6274320;22;20180;-71
2022/08/11 14:00:44;;;;;;;4.13;1.60;;;;;;;;;;6274840;22;20190;-71
2022/08/11 14:03:11;;;;;;;6.47;1.60;;;;;;;;;;6274134;22;20219;-71
2022/08/11 14:05:38;;;;;;;2.50;1.60;;;;;;;;;;6272910;22;20238;-72
2022/08/11 14:08:08;;;;;;;4.50;2.00;;;;;;;;;;6274333;22;20150;-72
2022/08/11 14:10:36;;;;;;;2.47;1.23;;;;;;;;;;6273865;22;20646;-72
2022/08/11 14:15:56;;;;;;;1.70;1.30;;;;;;;;;;6272507;22;20190;-72
2022/08/11 14:18:24;;;;;;;4.45;1.40;;;;;;;;;;6275247;22;20454;-72
2022/08/11 14:23:38;;;;;;;2.83;1.50;;;;;;;;;;6273734;22;20139;-72
2022/08/11 14:26:22;;;;;;;2.83;1.42;;;;;;;;;;6271707;22;20242;-72
2022/08/11 14:28:49;;;;;;;3.08;2.03;;;;;;;;;;6274897;22;20190;-72
2022/08/11 14:31:14;;;;;;;4.90;1.60;;;;;;;;;;6273205;22;20642;-70
2022/08/11 14:33:40;;;;;;;6.28;2.22;;;;;;;;;;6273874;22;20168;-71
2022/08/11 14:36:06;;;;;;;3.78;1.60;;;;;;;;;;6272977;22;20243;-72
2022/08/11 14:38:33;;;;;;;5.43;2.10;;;;;;;;;;6274571;22;20274;-72
2022/08/11 14:49:11;;;;;;;5.50;1.58;;;;;;;;;;6272575;22;20143;-72
2022/08/11 14:51:37;;;;;;;5.38;1.90;;;;;;;;;;6272819;22;20144;-72
2022/08/11 14:56:46;;;;;;;3.53;1.63;;;;;;;;;;6271959;22;20575;-71
2022/08/11 14:59:12;;;;;;;3.03;1.60;;;;;;;;;;6271909;22;20148;-72
2022/08/11 15:04:22;;;;;;;2.90;1.42;;;;;;;;;;6271724;22;20167;-71
2022/08/11 15:06:47;;;;;;;4.22;1.58;;;;;;;;;;6271095;22;20147;-72
2022/08/11 15:09:12;;;;;;;3.53;1.58;;;;;;;;;;6273096;22;20143;-71
2022/08/11 15:17:11;;;;;;;4.22;1.55;;;;;;;;;;6216445;22;20648;-71
2022/08/11 15:24:18;;;;;;;6.07;1.88;;;;;;;;;;6274241;22;20210;-71
2022/08/11 15:25:08;;;;;;;2.17;1.67;;;;;;;;;;6273908;22;20221;-71
2022/08/11 15:38:35;;;;;;;4.53;1.50;;;;;;;;;;6274038;22;20634;-71
2022/08/11 15:46:47;;;;;;;2.92;1.30;;;;;;;;;;6273786;22;20233;-71
2022/08/11 15:49:13;;;;;;;2.00;1.80;;;;;;;;;;6298059;22;20162;-70
2022/08/11 15:51:46;;;;;;;2.17;1.77;;;;;;;;;;6273883;22;20151;-71
2022/08/11 15:54:15;;;;;;;2.47;1.60;;;;;;;;;;6272469;22;20144;-71
2022/08/11 15:56:44;;;;;;;4.97;1.58;;;;;;;;;;6272188;22;20186;-71
2022/08/11 16:04:40;;;;;;;3.85;1.63;;;;;;;;;;6273482;22;20139;-72
2022/08/11 16:07:10;;;;;;;4.00;1.75;;;;;;;;;;6272607;22;20499;-71
2022/08/11 16:09:54;;;;;;;2.40;1.55;;;;;;;;;;6271139;22;20147;-71
2022/08/11 16:12:21;;;;;;;3.75;1.75;;;;;;;;;;6272938;22;20659;-71
2022/08/11 16:17:35;;;;;;;5.45;1.70;;;;;;;;;;6273159;22;20217;-71
2022/08/11 16:20:01;;;;;;;2.03;1.60;;;;;;;;;;6272932;22;20171;-71
2022/08/11 16:22:50;;;;;;;2.05;1.33;;;;;;;;;;6273106;22;20193;-71
2022/08/11 16:25:17;;;;;;;3.58;2.28;;;;;;;;;;6296764;22;20194;-71
2022/08/11 16:27:45;;;;;;;5.03;2.03;;;;;;;;;;6272936;22;20163;-71
2022/08/11 16:30:10;;;;;;;3.85;1.70;;;;;;;;;;6272300;22;20179;-72
2022/08/11 16:32:38;;;;;;;1.55;1.38;;;;;;;;;;6272869;22;20144;-72
2022/08/11 16:40:38;;;;;;;2.70;0.90;;;;;;;;;;6272482;22;20139;-72
2022/08/11 16:48:33;;;;;;;4.43;1.70;;;;;;;;;;6271751;22;20475;-71
2022/08/11 16:50:59;;;;;;;3.20;1.30;;;;;;;;;;6272979;22;20269;-71
2022/08/11 16:53:26;;;;;;;3.42;1.38;;;;;;;;;;6273266;22;20170;-70
2022/08/11 16:55:52;;;;;;;2.33;1.13;;;;;;;;;;6272582;22;20186;-71
2022/08/11 17:01:02;;;;;;;2.38;1.35;;;;;;;;;;6271372;22;20587;-72
2022/08/11 17:14:47;;;;;;;1.85;1.42;;;;;;;;;;6264328;22;20181;-73
2022/08/11 17:17:14;;;;;;;2.97;1.45;;;;;;;;;;6276299;22;20186;-72
2022/08/11 17:19:41;;;;;;;1.75;1.10;;;;;;;;;;6274630;22;20574;-72
2022/08/11 17:24:51;;;;;;;2.95;1.10;;;;;;;;;;6275060;22;20221;-72
2022/08/11 17:27:18;;;;;;;1.77;1.40;;;;;;;;;;6275800;22;20156;-72
2022/08/11 17:29:46;;;;;;;2.33;1.02;;;;;;;;;;6275116;22;20144;-73
2022/08/11 17:37:43;;;;;;;2.78;1.27;;;;;;;;;;6274187;22;20174;-73
2022/08/11 17:40:11;;;;;;;4.47;1.35;;;;;;;;;;6297270;22;20144;-73
2022/08/11 17:50:50;;;;;;;3.50;1.33;;;;;;;;;;6274466;22;20142;-71
2022/08/11 18:01:34;;;;;;;4.43;1.50;;;;;;;;;;6274016;22;20135;-70
2022/08/11 18:03:59;;;;;;;2.75;1.20;;;;;;;;;;6275079;22;20531;-71
2022/08/11 18:06:27;;;;;;;8.75;1.52;;;;;;;;;;6274226;22;20195;-72
